Time;durP1;ratioP1;P1;durP2;ratioP2;P2;SDS_P1;SDS_P2;PMS_P1;PMS_P2;Temp;Humidity;BMP_temperature;BMP_pressure;BME280_temperature;BME280_humidity;BME280_pressure;Samples;Min_cycle;Max_cycle;Signal;HPM_P1;HPM_P2
2021/09/05 00:01:47;;;;;;;13.13;8.33;;;12.90;99.90;;;;;;5081432;28;20722;-74
2021/09/05 00:04:13;;;;;;;15.20;7.77;;;13.00;99.90;;;;;;5078542;28;20165;-74
2021/09/05 00:06:39;;;;;;;15.53;8.60;;;12.90;99.90;;;;;;5082608;28;20884;-74
2021/09/05 00:09:05;;;;;;;12.90;9.30;;;12.90;99.90;;;;;;5080741;28;20861;-74
2021/09/05 00:11:30;;;;;;;15.37;7.67;;;12.90;99.90;;;;;;5064233;28;20180;-74
2021/09/05 00:13:56;;;;;;;14.43;8.70;;;12.90;99.90;;;;;;5076701;28;20588;-74
2021/09/05 00:16:23;;;;;;;10.40;8.30;;;12.90;99.90;;;;;;5077372;28;20572;-74
2021/09/05 00:18:49;;;;;;;17.13;8.60;;;12.80;99.90;;;;;;5076619;28;20252;-74
2021/09/05 00:21:15;;;;;;;20.80;8.30;;;12.80;99.90;;;;;;5081787;28;20434;-74
2021/09/05 00:23:41;;;;;;;13.63;8.30;;;12.80;99.90;;;;;;5079732;28;20509;-74
2021/09/05 00:26:07;;;;;;;13.33;7.93;;;12.70;99.90;;;;;;5081509;28;20528;-74
2021/09/05 00:28:33;;;;;;;10.33;8.07;;;12.70;99.90;;;;;;5076163;28;20427;-74
2021/09/05 00:31:01;;;;;;;16.60;9.00;;;12.60;99.90;;;;;;5079889;28;20915;-74
2021/09/05 00:33:26;;;;;;;11.80;8.20;;;12.60;99.90;;;;;;5079296;28;20423;-74
2021/09/05 00:35:52;;;;;;;14.50;8.03;;;12.60;99.90;;;;;;5082239;28;20769;-74
2021/09/05 00:38:18;;;;;;;15.77;9.60;;;12.60;99.90;;;;;;5080563;28;20179;-74
2021/09/05 00:40:44;;;;;;;13.80;8.40;;;12.70;99.90;;;;;;5078140;28;20192;-74
2021/09/05 00:43:09;;;;;;;10.37;7.20;;;12.60;99.90;;;;;;5079654;28;20506;-74
2021/09/05 00:45:35;;;;;;;11.07;7.23;;;12.60;99.90;;;;;;5079905;28;20532;-74
2021/09/05 00:48:00;;;;;;;17.77;7.40;;;12.50;99.90;;;;;;5079858;28;20177;-74
2021/09/05 00:50:28;;;;;;;14.17;8.27;;;12.50;99.90;;;;;;5078999;28;20253;-74
2021/09/05 00:52:54;;;;;;;12.13;8.30;;;12.50;99.90;;;;;;5081802;28;20263;-74
2021/09/05 00:55:20;;;;;;;12.70;8.30;;;12.50;99.90;;;;;;5077642;28;20663;-74
2021/09/05 00:57:47;;;;;;;13.77;8.00;;;12.50;99.90;;;;;;5078134;28;20744;-74
2021/09/05 01:00:13;;;;;;;11.73;8.10;;;12.40;99.90;;;;;;5076631;28;20547;-74
2021/09/05 01:02:39;;;;;;;19.63;9.80;;;12.40;99.90;;;;;;5081669;28;20430;-74
2021/09/05 01:05:06;;;;;;;11.80;7.87;;;12.40;99.90;;;;;;5078273;28;20422;-74
2021/09/05 01:07:33;;;;;;;10.13;7.90;;;12.40;99.90;;;;;;5079810;28;20175;-74
2021/09/05 01:09:59;;;;;;;12.27;8.30;;;12.40;99.90;;;;;;5078192;28;20910;-74
2021/09/05 01:12:26;;;;;;;11.47;7.60;;;12.40;99.90;;;;;;5079538;28;20431;-74
2021/09/05 01:14:52;;;;;;;11.97;7.70;;;12.30;99.90;;;;;;5078957;28;20425;-74
2021/09/05 01:17:18;;;;;;;11.70;7.30;;;12.30;99.90;;;;;;5077396;28;20488;-74
2021/09/05 01:19:44;;;;;;;13.50;8.67;;;12.30;99.90;;;;;;5074997;28;20453;-74
2021/09/05 01:22:10;;;;;;;11.50;8.00;;;12.20;99.90;;;;;;5064292;28;20455;-74
2021/09/05 01:24:36;;;;;;;10.53;7.03;;;12.20;99.90;;;;;;5078139;28;20196;-74
2021/09/05 01:27:02;;;;;;;15.10;8.00;;;12.20;99.90;;;;;;5062395;28;20172;-74
2021/09/05 01:29:27;;;;;;;15.70;8.07;;;12.20;99.90;;;;;;5072763;28;20180;-74
2021/09/05 01:31:55;;;;;;;11.13;7.30;;;12.20;99.90;;;;;;5080194;28;20195;-74
2021/09/05 01:34:22;;;;;;;14.13;7.93;;;12.10;99.90;;;;;;5079365;28;20190;-74
2021/09/05 01:36:49;;;;;;;15.80;7.90;;;12.10;99.90;;;;;;5079665;28;20438;-74
2021/09/05 01:39:16;;;;;;;13.23;8.23;;;12.10;99.90;;;;;;5057841;28;20461;-74
2021/09/05 01:41:43;;;;;;;13.23;7.90;;;12.00;99.90;;;;;;5079594;28;20962;-74
2021/09/05 01:44:20;;;;;;;11.90;7.70;;;12.00;99.90;;;;;;5079405;28;20475;-74
2021/09/05 01:46:46;;;;;;;12.13;6.80;;;12.00;99.90;;;;;;5079338;28;20836;-74
2021/09/05 01:49:12;;;;;;;13.63;8.27;;;12.00;99.90;;;;;;5076587;28;20514;-74
2021/09/05 01:51:38;;;;;;;10.50;7.80;;;12.00;99.90;;;;;;5077971;28;20175;-74
2021/09/05 01:54:03;;;;;;;13.63;8.50;;;11.90;99.90;;;;;;5076652;28;20518;-74
2021/09/05 01:56:33;;;;;;;13.90;8.93;;;11.90;99.90;;;;;;5079223;28;20195;-74
2021/09/05 01:59:00;;;;;;;13.70;7.77;;;12.00;99.90;;;;;;5075753;28;20196;-74
2021/09/05 02:01:27;;;;;;;12.10;8.30;;;12.00;99.90;;;;;;5074884;28;20435;-74
2021/09/05 02:03:53;;;;;;;18.63;7.93;;;12.00;99.90;;;;;;5079957;28;20432;-74
2021/09/05 02:06:19;;;;;;;9.50;7.00;;;11.90;99.90;;;;;;5083478;28;20430;-74
2021/09/05 02:08:44;;;;;;;10.70;7.23;;;11.90;99.90;;;;;;5077445;28;20458;-74
2021/09/05 02:11:10;;;;;;;9.03;7.27;;;11.80;99.90;;;;;;5084290;28;20917;-74
2021/09/05 02:13:36;;;;;;;10.57;7.90;;;11.80;99.90;;;;;;5079417;28;20260;-74
2021/09/05 02:16:02;;;;;;;12.83;6.93;;;11.70;99.90;;;;;;5081335;28;20255;-74
2021/09/05 02:18:28;;;;;;;9.87;7.10;;;11.70;99.90;;;;;;5079628;28;20631;-74
2021/09/05 02:20:55;;;;;;;11.67;7.73;;;11.60;99.90;;;;;;5084347;28;20951;-74
2021/09/05 02:23:21;;;;;;;7.97;6.93;;;11.60;99.90;;;;;;5078474;28;20429;-74
2021/09/05 02:25:47;;;;;;;9.60;7.33;;;11.50;99.90;;;;;;5082182;28;20918;-74
2021/09/05 02:28:12;;;;;;;11.87;7.40;;;11.50;99.90;;;;;;5081095;28;20172;-74
2021/09/05 02:30:38;;;;;;;11.20;7.43;;;11.50;99.90;;;;;;5077979;28;20434;-74
2021/09/05 02:33:04;;;;;;;13.40;6.90;;;11.40;99.90;;;;;;5072815;28;20195;-74
2021/09/05 02:35:30;;;;;;;6.90;6.03;;;11.40;99.90;;;;;;5064393;28;20185;-74
2021/09/05 02:37:56;;;;;;;9.67;6.80;;;11.40;99.90;;;;;;5081077;28;20806;-74
2021/09/05 02:40:21;;;;;;;7.60;6.30;;;11.30;99.90;;;;;;5078137;28;20829;-74
2021/09/05 02:42:47;;;;;;;13.30;7.20;;;11.30;99.90;;;;;;5079530;28;20191;-74
2021/09/05 02:45:13;;;;;;;9.80;6.27;;;11.30;99.90;;;;;;5081194;28;20578;-74
2021/09/05 02:47:39;;;;;;;12.00;7.43;;;11.30;99.90;;;;;;5081031;28;20620;-74
2021/09/05 02:50:06;;;;;;;7.87;6.10;;;11.30;99.90;;;;;;5077933;28;20442;-74
2021/09/05 02:52:32;;;;;;;11.00;7.90;;;11.30;99.90;;;;;;5078085;28;20173;-74
2021/09/05 02:54:57;;;;;;;10.30;5.97;;;11.30;99.90;;;;;;5081400;28;20441;-74
2021/09/05 02:57:23;;;;;;;8.33;6.03;;;11.30;99.90;;;;;;5082000;28;20912;-74
2021/09/05 02:59:49;;;;;;;7.70;5.10;;;11.30;99.90;;;;;;5080000;28;20207;-74
2021/09/05 03:02:14;;;;;;;11.63;6.83;;;11.30;99.90;;;;;;5080133;28;20176;-74
2021/09/05 03:04:40;;;;;;;6.63;5.83;;;11.30;99.90;;;;;;5082993;28;20175;-74
2021/09/05 03:07:06;;;;;;;8.70;4.87;;;11.40;99.90;;;;;;5081175;28;20177;-74
2021/09/05 03:09:32;;;;;;;9.20;6.90;;;11.30;99.90;;;;;;5079261;28;20620;-74
2021/09/05 03:11:57;;;;;;;11.47;6.10;;;11.30;99.90;;;;;;5083400;28;20184;-74
2021/09/05 03:14:23;;;;;;;10.70;5.70;;;11.20;99.90;;;;;;5079811;28;20426;-74
2021/09/05 03:16:49;;;;;;;7.70;5.60;;;11.30;99.90;;;;;;5079336;28;21665;-74
2021/09/05 03:19:14;;;;;;;9.73;6.60;;;11.20;99.90;;;;;;5073945;28;20203;-74
2021/09/05 03:21:41;;;;;;;8.50;6.67;;;11.20;99.90;;;;;;5078483;28;20180;-74
2021/09/05 03:24:07;;;;;;;9.03;5.63;;;11.10;99.90;;;;;;5077726;28;20177;-74
2021/09/05 03:26:34;;;;;;;8.40;6.90;;;11.10;99.90;;;;;;5083693;28;20483;-74
2021/09/05 03:29:00;;;;;;;7.50;5.40;;;11.10;99.90;;;;;;5077277;28;20445;-74
2021/09/05 03:31:26;;;;;;;8.07;5.83;;;11.10;99.90;;;;;;5078483;28;20529;-74
2021/09/05 03:33:52;;;;;;;8.17;6.13;;;11.10;99.90;;;;;;5081671;28;20524;-74
2021/09/05 03:36:17;;;;;;;7.90;5.67;;;11.10;99.90;;;;;;5082447;28;20183;-74
2021/09/05 03:38:43;;;;;;;7.93;6.20;;;11.10;99.90;;;;;;5062067;28;20213;-74
2021/09/05 03:41:09;;;;;;;9.00;6.93;;;11.00;99.90;;;;;;5081022;28;20255;-74
2021/09/05 03:43:34;;;;;;;6.57;5.57;;;11.00;99.90;;;;;;5081966;28;20172;-74
2021/09/05 03:46:00;;;;;;;8.77;5.70;;;11.00;99.90;;;;;;5082487;28;20319;-74
2021/09/05 03:48:26;;;;;;;8.13;5.40;;;11.00;99.90;;;;;;5081683;28;20188;-74
2021/09/05 03:50:52;;;;;;;9.10;5.20;;;11.00;99.90;;;;;;5082174;28;20430;-74
2021/09/05 03:53:18;;;;;;;7.17;5.80;;;10.90;99.90;;;;;;5082533;28;20318;-74
2021/09/05 03:55:43;;;;;;;6.07;4.87;;;10.90;99.90;;;;;;5081311;28;20175;-74
2021/09/05 03:58:09;;;;;;;8.63;5.43;;;10.90;99.90;;;;;;5080409;28;20219;-74
2021/09/05 04:00:36;;;;;;;8.13;6.07;;;10.90;99.90;;;;;;5078722;28;20686;-74
2021/09/05 04:03:01;;;;;;;6.20;5.50;;;10.80;99.90;;;;;;5081773;28;20263;-74
2021/09/05 04:05:27;;;;;;;6.70;4.97;;;10.80;99.90;;;;;;5081586;28;20558;-74
2021/09/05 04:10:37;;;;;;;10.10;5.50;;;10.70;99.90;;;;;;5081776;28;20187;-74
2021/09/05 04:13:04;;;;;;;7.37;5.80;;;10.80;99.90;;;;;;5079730;28;20743;-74
2021/09/05 04:15:30;;;;;;;6.53;4.80;;;10.70;99.90;;;;;;5082258;28;20551;-74
2021/09/05 04:17:56;;;;;;;7.13;4.60;;;10.70;99.90;;;;;;5081307;28;20914;-74
2021/09/05 04:20:23;;;;;;;8.90;5.23;;;10.60;99.90;;;;;;5078608;28;20458;-74
2021/09/05 04:22:49;;;;;;;12.70;6.13;;;10.60;99.90;;;;;;5083289;28;20411;-74
2021/09/05 04:25:15;;;;;;;8.33;4.93;;;10.60;99.90;;;;;;5080091;28;20469;-74
2021/09/05 04:27:41;;;;;;;5.30;4.43;;;10.60;99.90;;;;;;5079177;28;20437;-74
2021/09/05 04:30:09;;;;;;;5.53;4.90;;;10.60;99.90;;;;;;5079797;28;20539;-74
2021/09/05 04:32:35;;;;;;;6.63;4.93;;;10.50;99.90;;;;;;5079388;28;20464;-74
2021/09/05 04:35:02;;;;;;;5.90;4.27;;;10.50;99.90;;;;;;5064391;28;20418;-74
2021/09/05 04:37:28;;;;;;;8.67;5.17;;;10.40;99.90;;;;;;5081198;28;20499;-75
2021/09/05 04:39:54;;;;;;;7.60;4.90;;;10.50;99.90;;;;;;5079000;28;20460;-74
2021/09/05 04:42:20;;;;;;;5.70;4.70;;;10.40;99.90;;;;;;5061527;28;20438;-74
2021/09/05 04:44:46;;;;;;;8.03;5.10;;;10.50;99.90;;;;;;5081383;28;20199;-74
2021/09/05 04:47:13;;;;;;;8.80;5.47;;;10.50;99.90;;;;;;5081605;28;20403;-74
2021/09/05 04:49:38;;;;;;;6.83;4.50;;;10.40;99.90;;;;;;5076634;28;20176;-74
2021/09/05 04:52:06;;;;;;;6.87;5.70;;;10.40;99.90;;;;;;5081936;28;20981;-74
2021/09/05 04:54:35;;;;;;;7.20;4.93;;;10.40;99.90;;;;;;5079229;28;20188;-74
2021/09/05 04:57:00;;;;;;;8.93;5.50;;;10.40;99.90;;;;;;5079765;28;20426;-74
2021/09/05 04:59:26;;;;;;;7.37;4.93;;;10.40;99.90;;;;;;5078516;28;20923;-74
2021/09/05 05:01:52;;;;;;;6.30;5.00;;;10.30;99.90;;;;;;5080949;28;20185;-74
2021/09/05 05:04:18;;;;;;;8.53;5.20;;;10.30;99.90;;;;;;5062294;28;20624;-74
2021/09/05 05:06:44;;;;;;;5.43;4.13;;;10.30;99.90;;;;;;5080485;28;20182;-74
2021/09/05 05:09:10;;;;;;;5.50;4.43;;;10.30;99.90;;;;;;5060932;28;20184;-74
2021/09/05 05:11:37;;;;;;;6.33;3.90;;;10.30;99.90;;;;;;5080360;28;20895;-74
2021/09/05 05:14:03;;;;;;;6.70;4.73;;;10.30;99.90;;;;;;5082416;28;20482;-74
2021/09/05 05:16:29;;;;;;;5.20;4.10;;;10.30;99.90;;;;;;5080210;28;20488;-74
2021/09/05 05:18:54;;;;;;;4.83;3.67;;;10.30;99.90;;;;;;5076557;28;20450;-74
2021/09/05 05:21:20;;;;;;;11.43;5.43;;;10.30;99.90;;;;;;5081526;28;20263;-74
2021/09/05 05:23:46;;;;;;;5.53;4.57;;;10.30;99.90;;;;;;5081134;28;20234;-74
2021/09/05 05:26:11;;;;;;;6.37;5.07;;;10.30;99.90;;;;;;5080503;28;20232;-74
2021/09/05 05:28:37;;;;;;;7.80;5.40;;;10.30;99.90;;;;;;5073841;28;20574;-74
2021/09/05 05:31:03;;;;;;;8.30;4.40;;;10.40;99.90;;;;;;5079435;28;20181;-74
2021/09/05 05:33:29;;;;;;;10.50;5.60;;;10.30;99.90;;;;;;5079407;28;20203;-74
2021/09/05 05:35:54;;;;;;;10.07;5.60;;;10.40;99.90;;;;;;5080708;28;20182;-74
2021/09/05 05:38:20;;;;;;;8.20;6.43;;;10.60;99.90;;;;;;5080751;28;20221;-74
2021/09/05 05:40:45;;;;;;;8.00;6.23;;;10.50;99.90;;;;;;5082801;28;20245;-74
2021/09/05 05:43:11;;;;;;;6.80;5.40;;;10.60;99.90;;;;;;5084589;28;20188;-74
2021/09/05 05:45:37;;;;;;;8.27;5.57;;;10.60;99.90;;;;;;5082758;28;20669;-74
2021/09/05 05:48:03;;;;;;;14.40;5.87;;;10.60;99.90;;;;;;5083345;28;20185;-74
2021/09/05 05:50:28;;;;;;;6.50;5.90;;;10.70;99.90;;;;;;5081776;28;20223;-74
2021/09/05 05:52:54;;;;;;;6.57;5.37;;;10.70;99.90;;;;;;5085331;28;20257;-74
2021/09/05 05:55:20;;;;;;;7.43;5.97;;;10.80;99.90;;;;;;5083752;28;20196;-74
2021/09/05 05:57:46;;;;;;;5.23;4.67;;;10.80;99.90;;;;;;5082386;28;20230;-74
2021/09/05 06:00:12;;;;;;;7.70;5.90;;;10.90;99.90;;;;;;5063771;28;20536;-74
2021/09/05 06:02:38;;;;;;;9.93;6.33;;;11.00;99.90;;;;;;5082361;28;20641;-74
2021/09/05 06:05:04;;;;;;;5.53;4.80;;;11.00;99.90;;;;;;5085873;28;20457;-74
2021/09/05 06:07:30;;;;;;;11.40;5.27;;;11.00;99.90;;;;;;5085017;28;20431;-74
2021/09/05 06:09:55;;;;;;;11.30;5.97;;;11.10;99.90;;;;;;5083440;28;20444;-74
2021/09/05 06:12:21;;;;;;;9.17;5.47;;;11.20;99.90;;;;;;5085211;28;20199;-74
2021/09/05 06:14:47;;;;;;;5.53;4.80;;;11.20;99.90;;;;;;5084023;28;20598;-74
2021/09/05 06:17:12;;;;;;;6.27;4.67;;;11.20;99.90;;;;;;5084797;28;20522;-74
2021/09/05 06:19:38;;;;;;;8.10;5.23;;;11.30;99.90;;;;;;5079478;28;20570;-74
2021/09/05 06:22:05;;;;;;;9.80;4.90;;;11.30;99.90;;;;;;5083037;28;20206;-74
2021/09/05 06:24:30;;;;;;;11.33;6.20;;;11.40;99.90;;;;;;5065954;28;20441;-75
2021/09/05 06:26:56;;;;;;;7.47;5.40;;;11.50;99.90;;;;;;5082499;28;20449;-75
2021/09/05 06:29:22;;;;;;;5.90;5.17;;;11.50;99.90;;;;;;5079609;28;20245;-75
2021/09/05 06:31:48;;;;;;;7.20;5.73;;;11.50;99.90;;;;;;5060143;28;20191;-75
2021/09/05 06:34:13;;;;;;;6.10;5.13;;;11.60;99.90;;;;;;5072576;28;20602;-75
2021/09/05 06:36:39;;;;;;;8.10;5.80;;;11.70;99.90;;;;;;5077739;28;20219;-75
2021/09/05 06:39:05;;;;;;;5.90;5.30;;;11.70;99.90;;;;;;5080642;28;20544;-75
2021/09/05 06:41:31;;;;;;;11.37;5.20;;;11.80;99.90;;;;;;5048975;28;20271;-75
2021/09/05 06:43:57;;;;;;;7.17;4.70;;;11.80;99.90;;;;;;5083996;28;20183;-75
2021/09/05 06:46:23;;;;;;;6.20;4.60;;;12.00;99.90;;;;;;5066833;28;20293;-74
2021/09/05 06:48:48;;;;;;;9.20;4.07;;;12.00;99.90;;;;;;5080495;28;20487;-74
2021/09/05 06:51:14;;;;;;;6.10;4.30;;;12.10;99.90;;;;;;5083049;28;20545;-74
2021/09/05 06:53:40;;;;;;;5.80;4.60;;;12.10;99.90;;;;;;5082339;28;20186;-74
2021/09/05 06:56:06;;;;;;;6.37;4.57;;;12.20;99.90;;;;;;5080660;28;20173;-74
2021/09/05 06:58:31;;;;;;;6.40;4.60;;;12.20;99.90;;;;;;5080939;28;20532;-74
2021/09/05 07:00:57;;;;;;;5.30;4.83;;;12.20;99.90;;;;;;5084391;28;20262;-74
2021/09/05 07:03:23;;;;;;;7.50;5.07;;;12.30;99.90;;;;;;5079406;28;20263;-74
2021/09/05 07:05:48;;;;;;;5.77;4.77;;;12.30;99.90;;;;;;5070131;28;20201;-74
2021/09/05 07:08:14;;;;;;;8.23;4.70;;;12.40;99.90;;;;;;5082902;28;20237;-74
2021/09/05 07:10:40;;;;;;;8.10;5.40;;;12.50;99.90;;;;;;5082568;28;20514;-74
2021/09/05 07:13:06;;;;;;;7.73;6.07;;;12.60;99.90;;;;;;5079477;28;20262;-75
2021/09/05 07:15:34;;;;;;;5.87;4.50;;;12.60;99.90;;;;;;5074668;28;20525;-74
2021/09/05 07:17:59;;;;;;;7.13;3.90;;;12.80;99.90;;;;;;5074774;28;20260;-74
2021/09/05 07:20:25;;;;;;;5.67;3.97;;;12.70;99.90;;;;;;5079674;28;20544;-74
2021/09/05 07:22:51;;;;;;;8.10;4.00;;;12.90;99.90;;;;;;5081416;28;20184;-75
2021/09/05 07:25:16;;;;;;;6.53;4.27;;;12.90;99.90;;;;;;5082588;28;20180;-75
2021/09/05 07:27:42;;;;;;;4.90;3.70;;;13.00;99.90;;;;;;5080461;28;20184;-75
2021/09/05 07:30:08;;;;;;;4.90;4.00;;;13.10;99.90;;;;;;5062754;28;20192;-75
2021/09/05 07:32:34;;;;;;;6.20;4.10;;;13.20;99.90;;;;;;5078971;28;20666;-75
2021/09/05 07:34:59;;;;;;;7.77;3.90;;;13.20;99.90;;;;;;5079608;28;20437;-75
2021/09/05 07:37:25;;;;;;;4.30;3.57;;;13.20;99.90;;;;;;5070557;28;20623;-74
2021/09/05 07:39:51;;;;;;;7.40;4.00;;;13.30;99.90;;;;;;5060729;28;20205;-74
2021/09/05 07:42:17;;;;;;;3.30;2.97;;;13.40;99.90;;;;;;5074077;28;20433;-75
2021/09/05 07:44:42;;;;;;;6.43;3.87;;;13.50;99.90;;;;;;5075922;28;20236;-75
2021/09/05 07:47:08;;;;;;;4.20;3.77;;;13.60;99.90;;;;;;5075511;28;20266;-75
2021/09/05 07:49:33;;;;;;;3.53;3.23;;;13.60;99.90;;;;;;5075858;28;20641;-75
2021/09/05 07:51:59;;;;;;;6.30;3.70;;;13.60;99.90;;;;;;5080420;28;20188;-75
2021/09/05 07:54:25;;;;;;;5.27;4.40;;;13.70;99.90;;;;;;5078614;28;20281;-75
2021/09/05 07:56:50;;;;;;;4.27;3.50;;;13.70;99.90;;;;;;5076100;28;20180;-74
2021/09/05 07:59:16;;;;;;;5.57;3.57;;;13.70;99.90;;;;;;5069668;28;20293;-75
2021/09/05 08:01:42;;;;;;;4.17;3.50;;;13.90;99.90;;;;;;5074175;28;20657;-75
2021/09/05 08:04:08;;;;;;;4.10;3.73;;;13.90;99.90;;;;;;5075420;28;20176;-75
2021/09/05 08:06:33;;;;;;;5.13;4.63;;;14.00;99.90;;;;;;5081125;28;20180;-75
2021/09/05 08:08:59;;;;;;;3.53;3.33;;;13.90;99.90;;;;;;5077164;28;20204;-75
2021/09/05 08:11:25;;;;;;;4.10;3.63;;;14.00;99.90;;;;;;5079696;28;20188;-76
2021/09/05 08:13:52;;;;;;;4.40;3.57;;;14.00;99.90;;;;;;5076463;28;20205;-75
2021/09/05 08:16:18;;;;;;;4.10;3.70;;;14.20;99.90;;;;;;5076507;28;20438;-75
2021/09/05 08:18:44;;;;;;;3.53;3.23;;;14.30;99.90;;;;;;5077299;28;23411;-75
2021/09/05 08:21:11;;;;;;;4.70;3.30;;;14.30;99.90;;;;;;5079305;28;20439;-75
2021/09/05 08:23:38;;;;;;;3.83;3.20;;;14.30;99.90;;;;;;5074482;28;20435;-75
2021/09/05 08:26:06;;;;;;;4.10;3.47;;;14.40;99.90;;;;;;5080520;28;20430;-75
2021/09/05 08:28:32;;;;;;;3.13;2.93;;;14.50;99.90;;;;;;5074530;28;20435;-75
2021/09/05 08:30:58;;;;;;;3.93;3.53;;;14.60;99.90;;;;;;5057135;28;20446;-75
2021/09/05 08:33:25;;;;;;;4.80;3.30;;;14.70;99.90;;;;;;5070594;28;20437;-75
2021/09/05 08:35:50;;;;;;;3.17;2.73;;;14.80;99.90;;;;;;5069676;28;20433;-77
2021/09/05 08:38:16;;;;;;;3.50;3.17;;;14.80;99.90;;;;;;5079451;28;20830;-76
2021/09/05 08:40:44;;;;;;;4.17;3.77;;;14.90;99.90;;;;;;5053480;28;20219;-73
2021/09/05 08:43:12;;;;;;;4.40;3.23;;;15.00;99.90;;;;;;5061216;28;20245;-74
2021/09/05 08:45:39;;;;;;;5.90;2.90;;;15.10;99.90;;;;;;5074317;28;20419;-74
2021/09/05 08:48:06;;;;;;;4.33;3.93;;;15.10;99.90;;;;;;5064692;28;20843;-74
2021/09/05 08:50:34;;;;;;;3.13;2.83;;;15.20;99.90;;;;;;5064111;28;20473;-74
2021/09/05 08:53:00;;;;;;;4.27;3.47;;;15.30;99.90;;;;;;5065890;28;20495;-75
2021/09/05 08:55:27;;;;;;;5.20;3.30;;;15.40;99.90;;;;;;5070553;28;20475;-74
2021/09/05 08:57:53;;;;;;;3.50;3.00;;;15.50;99.90;;;;;;5053866;28;20444;-75
2021/09/05 09:00:19;;;;;;;3.60;3.00;;;15.60;99.90;;;;;;5068708;28;20458;-74
2021/09/05 09:02:45;;;;;;;3.50;3.03;;;15.60;99.90;;;;;;5065898;28;20429;-74
2021/09/05 09:05:12;;;;;;;5.23;3.83;;;15.70;99.90;;;;;;5066735;28;20805;-74
2021/09/05 09:07:45;;;;;;;4.00;3.60;;;15.80;99.90;;;;;;5068246;28;20196;-74
2021/09/05 09:10:10;;;;;;;4.37;2.83;;;15.80;99.90;;;;;;5067283;28;20421;-73
2021/09/05 09:12:41;;;;;;;4.03;3.47;;;15.80;99.90;;;;;;5061772;28;20555;-74
2021/09/05 09:15:18;;;;;;;3.40;3.10;;;15.90;99.90;;;;;;5066270;28;20181;-73
2021/09/05 09:17:44;;;;;;;4.03;3.60;;;16.10;99.90;;;;;;5058507;28;20435;-73
2021/09/05 09:20:10;;;;;;;3.63;3.10;;;16.20;99.90;;;;;;5066315;28;20458;-73
2021/09/05 09:22:36;;;;;;;4.40;3.70;;;16.30;99.90;;;;;;5070985;28;20896;-74
2021/09/05 09:25:02;;;;;;;3.60;2.73;;;16.50;99.90;;;;;;5062843;28;20434;-74
2021/09/05 09:27:28;;;;;;;3.53;3.13;;;16.60;99.90;;;;;;5064186;28;20180;-71
2021/09/05 09:29:55;;;;;;;5.53;3.37;;;16.80;99.90;;;;;;5066345;28;20215;-72
2021/09/05 09:32:23;;;;;;;4.10;3.70;;;16.90;99.90;;;;;;5066482;28;20438;-71
2021/09/05 09:34:50;;;;;;;3.53;3.20;;;17.20;99.90;;;;;;5069872;28;20786;-71
2021/09/05 09:37:18;;;;;;;4.13;3.20;;;17.30;99.90;;;;;;5075742;28;20886;-71
2021/09/05 09:39:58;;;;;;;5.77;3.87;;;17.30;99.90;;;;;;5074665;28;20464;-72
2021/09/05 09:42:37;;;;;;;4.33;3.17;;;17.30;99.90;;;;;;5074793;28;20427;-72
2021/09/05 09:45:13;;;;;;;3.50;3.13;;;17.50;99.90;;;;;;5075684;28;20579;-72
2021/09/05 09:47:43;;;;;;;4.73;3.30;;;17.60;99.90;;;;;;5073001;28;20932;-72
2021/09/05 09:50:09;;;;;;;6.20;3.00;;;17.60;99.90;;;;;;5074999;28;20441;-72
2021/09/05 09:52:36;;;;;;;3.93;3.00;;;17.90;99.90;;;;;;5074255;28;20442;-72
2021/09/05 09:55:02;;;;;;;3.97;3.57;;;18.00;99.90;;;;;;5077710;28;20768;-71
2021/09/05 09:57:28;;;;;;;5.47;3.50;;;18.00;99.90;;;;;;5080345;28;20435;-72
2021/09/05 09:59:53;;;;;;;3.57;3.23;;;18.00;99.90;;;;;;5078667;28;20472;-72
2021/09/05 10:02:23;;;;;;;3.77;3.40;;;18.00;99.90;;;;;;5077428;28;20176;-70
2021/09/05 10:04:51;;;;;;;7.80;3.97;;;18.30;99.90;;;;;;5079861;28;20226;-70
2021/09/05 10:07:21;;;;;;;3.00;2.80;;;18.40;99.90;;;;;;5080593;28;20421;-70
2021/09/05 10:09:48;;;;;;;5.30;3.40;;;18.50;99.90;;;;;;5077828;28;20421;-70
2021/09/05 10:12:15;;;;;;;3.80;3.50;;;18.60;99.90;;;;;;5078946;28;20470;-70
2021/09/05 10:14:43;;;;;;;4.93;3.37;;;18.40;99.90;;;;;;5081110;28;20498;-70
2021/09/05 10:17:11;;;;;;;7.60;3.67;;;18.40;99.90;;;;;;5080153;28;20431;-69
2021/09/05 10:19:38;;;;;;;3.50;3.20;;;18.70;99.90;;;;;;5079669;28;20461;-70
2021/09/05 10:22:05;;;;;;;3.33;3.03;;;18.80;99.90;;;;;;5079041;28;20899;-70
2021/09/05 10:25:04;;;;;;;3.37;3.07;;;19.00;99.90;;;;;;5081000;28;20881;-70
2021/09/05 10:27:39;;;;;;;5.23;3.50;;;19.00;99.90;;;;;;5034348;28;20449;-70
2021/09/05 10:30:07;;;;;;;3.73;3.40;;;19.00;99.90;;;;;;5082754;28;20488;-69
2021/09/05 10:32:48;;;;;;;4.00;3.30;;;19.00;99.90;;;;;;5082206;28;20437;-70
2021/09/05 10:35:25;;;;;;;4.53;4.10;;;19.10;99.90;;;;;;5083591;28;20498;-70
2021/09/05 10:38:14;;;;;;;3.47;3.13;;;19.20;99.90;;;;;;5080648;28;20472;-70
2021/09/05 10:40:46;;;;;;;3.70;3.37;;;19.10;99.90;;;;;;5080565;28;20927;-70
2021/09/05 10:43:13;;;;;;;3.40;3.10;;;19.10;99.90;;;;;;5081917;28;20549;-70
2021/09/05 10:45:42;;;;;;;4.33;3.90;;;19.40;99.90;;;;;;5083323;28;20438;-70
2021/09/05 10:48:34;;;;;;;5.20;2.97;;;19.50;99.90;;;;;;5083620;28;20434;-70
2021/09/05 10:51:17;;;;;;;6.37;4.40;;;19.80;99.90;;;;;;5079789;28;20489;-70
2021/09/05 10:53:49;;;;;;;3.37;2.97;;;19.90;99.90;;;;;;5083158;28;20444;-70
2021/09/05 10:56:32;;;;;;;3.70;3.37;;;20.00;99.90;;;;;;5083446;28;20925;-71
2021/09/05 10:59:01;;;;;;;3.50;3.20;;;20.10;99.90;;;;;;5081169;28;20454;-70
2021/09/05 11:01:28;;;;;;;4.53;4.13;;;20.20;99.90;;;;;;5084495;28;20441;-70
2021/09/05 11:04:15;;;;;;;4.40;4.00;;;20.10;99.90;;;;;;5081866;28;20505;-70
2021/09/05 11:06:56;;;;;;;3.83;3.10;;;20.00;99.90;;;;;;5078929;28;20527;-70
2021/09/05 11:09:25;;;;;;;3.40;3.10;;;20.00;99.90;;;;;;5068587;28;20898;-69
2021/09/05 11:12:07;;;;;;;6.73;3.90;;;20.30;99.90;;;;;;5069516;28;20434;-69
2021/09/05 11:14:40;;;;;;;4.17;3.83;;;20.40;99.90;;;;;;5067240;28;20525;-70
2021/09/05 11:17:08;;;;;;;5.27;2.83;;;20.30;99.90;;;;;;5071957;28;20484;-69
2021/09/05 11:19:48;;;;;;;3.60;3.20;;;20.30;99.90;;;;;;5073786;28;20450;-70
2021/09/05 11:22:20;;;;;;;4.30;3.70;;;20.50;99.90;;;;;;5077892;28;20430;-69
2021/09/05 11:25:03;;;;;;;4.10;3.80;;;20.80;99.90;;;;;;5075248;28;20449;-70
2021/09/05 11:27:30;;;;;;;5.03;3.37;;;21.00;99.90;;;;;;5079286;28;20434;-70
2021/09/05 11:30:04;;;;;;;3.80;3.40;;;21.00;99.90;;;;;;5061060;28;20521;-73
2021/09/05 11:32:31;;;;;;;4.07;3.60;;;21.30;99.90;;;;;;5071279;28;20438;-73
2021/09/05 11:34:57;;;;;;;3.83;3.53;;;21.50;99.90;;;;;;5078876;28;20499;-72
2021/09/05 11:37:30;;;;;;;4.10;3.80;;;21.80;99.90;;;;;;5079225;28;20439;-72
2021/09/05 11:40:02;;;;;;;3.70;2.97;;;21.90;99.90;;;;;;5071564;28;20447;-72
2021/09/05 11:42:28;;;;;;;8.63;3.60;;;22.10;99.90;;;;;;5076850;28;20445;-71
2021/09/05 11:45:07;;;;;;;4.07;3.50;;;22.20;99.90;;;;;;5068088;28;20426;-71
2021/09/05 11:47:33;;;;;;;3.20;2.90;;;22.30;99.90;;;;;;5066232;28;20426;-72
2021/09/05 11:50:02;;;;;;;3.63;3.33;;;22.40;99.90;;;;;;5077070;28;20640;-72
2021/09/05 11:52:33;;;;;;;4.90;3.67;;;22.20;99.90;;;;;;5074475;28;20456;-72
2021/09/05 11:55:10;;;;;;;5.17;3.77;;;22.20;99.90;;;;;;5069179;28;20504;-72
2021/09/05 11:57:55;;;;;;;3.97;3.57;;;22.30;99.90;;;;;;5072880;28;20450;-72
2021/09/05 12:00:28;;;;;;;3.73;3.20;;;22.40;99.90;;;;;;5071091;28;20446;-71
2021/09/05 12:02:55;;;;;;;3.80;3.37;;;22.20;99.90;;;;;;5076162;28;20414;-71
2021/09/05 12:05:21;;;;;;;4.40;3.53;;;22.10;99.90;;;;;;5039021;28;20435;-71
2021/09/05 12:07:47;;;;;;;4.27;3.43;;;22.20;99.90;;;;;;5067931;28;21069;-71
2021/09/05 12:10:20;;;;;;;4.50;3.63;;;22.20;99.90;;;;;;5067522;28;20462;-71
2021/09/05 12:13:05;;;;;;;7.70;4.10;;;22.30;99.90;;;;;;5071280;28;20439;-71
2021/09/05 12:15:45;;;;;;;4.97;3.83;;;22.30;99.90;;;;;;5069240;28;20434;-72
2021/09/05 12:18:16;;;;;;;3.27;3.00;;;22.40;99.90;;;;;;5068458;28;20411;-72
2021/09/05 12:20:44;;;;;;;3.63;3.37;;;22.20;99.90;;;;;;5074445;28;20453;-73
2021/09/05 12:23:33;;;;;;;3.57;3.20;;;22.20;99.90;;;;;;5056571;28;20435;-73
2021/09/05 12:26:01;;;;;;;3.33;3.03;;;22.40;99.90;;;;;;5072693;28;20425;-73
2021/09/05 12:28:29;;;;;;;4.17;3.50;;;22.40;99.90;;;;;;5079974;28;20505;-72
2021/09/05 12:31:05;;;;;;;4.40;3.60;;;22.40;99.90;;;;;;5079698;28;20427;-72
2021/09/05 12:33:38;;;;;;;3.37;2.87;;;22.40;99.90;;;;;;5079008;28;20761;-72
2021/09/05 12:36:16;;;;;;;5.67;3.27;;;22.50;99.90;;;;;;5071066;28;20426;-71
2021/09/05 12:38:50;;;;;;;3.70;3.33;;;22.70;99.90;;;;;;5072112;28;20508;-72
2021/09/05 12:41:16;;;;;;;3.97;2.70;;;22.90;99.90;;;;;;5076834;28;20421;-72
2021/09/05 12:43:46;;;;;;;5.33;3.00;;;23.20;99.90;;;;;;5079470;28;20436;-71
2021/09/05 12:46:13;;;;;;;3.83;3.10;;;23.50;99.90;;;;;;5075113;28;20281;-71
2021/09/05 12:48:46;;;;;;;3.17;2.67;;;23.30;99.90;;;;;;5080091;28;20455;-72
2021/09/05 12:51:15;;;;;;;3.57;3.27;;;23.20;99.90;;;;;;5080588;28;20423;-71